createdAt,value
2022-08-26T00:00:59.420Z,8.60
2022-08-26T00:03:26.585Z,8.50
2022-08-26T00:05:54.624Z,8.40
2022-08-26T00:08:21.576Z,7.40
2022-08-26T00:10:48.778Z,8.20
2022-08-26T00:13:15.851Z,8.00
2022-08-26T00:15:47.046Z,8.20
2022-08-26T00:18:21.795Z,7.90
2022-08-26T00:20:49.203Z,8.30
2022-08-26T00:23:15.969Z,7.80
2022-08-26T00:25:42.954Z,7.00
2022-08-26T00:28:10.288Z,8.30
2022-08-26T00:30:37.842Z,8.00
2022-08-26T00:33:06.266Z,7.00
2022-08-26T00:35:34.245Z,7.40
2022-08-26T00:38:01.610Z,8.20
2022-08-26T00:40:40.676Z,8.50
2022-08-26T00:43:09.603Z,7.30
2022-08-26T00:45:49.882Z,7.70
2022-08-26T00:48:19.058Z,7.80
2022-08-26T00:50:50.863Z,7.90
2022-08-26T00:53:24.019Z,7.50
2022-08-26T00:55:54.448Z,7.40
2022-08-26T00:58:22.649Z,7.50
2022-08-26T01:00:49.520Z,7.30
2022-08-26T01:03:17.121Z,7.30
2022-08-26T01:05:43.897Z,6.90
2022-08-26T01:08:11.214Z,7.90
2022-08-26T01:10:38.797Z,6.80
2022-08-26T01:13:10.036Z,6.50
2022-08-26T01:15:45.615Z,7.30
2022-08-26T01:18:13.344Z,6.40
2022-08-26T01:21:24.904Z,6.70
2022-08-26T01:23:51.879Z,7.40
2022-08-26T01:26:33.152Z,6.80
2022-08-26T01:29:00.966Z,7.20
2022-08-26T01:31:31.154Z,6.70
2022-08-26T01:34:21.307Z,7.40
2022-08-26T01:36:51.546Z,7.20
2022-08-26T01:39:18.850Z,6.60
2022-08-26T01:41:45.655Z,6.90
2022-08-26T01:44:15.776Z,5.80
2022-08-26T01:46:43.545Z,6.70
2022-08-26T01:49:10.335Z,7.60
2022-08-26T01:51:37.352Z,6.90
2022-08-26T01:54:05.266Z,6.60
2022-08-26T01:56:33.473Z,6.70
2022-08-26T01:59:05.722Z,6.30
2022-08-26T02:01:32.441Z,7.50
2022-08-26T02:04:11.896Z,6.90
2022-08-26T02:06:39.182Z,6.60
2022-08-26T02:09:06.892Z,6.60
2022-08-26T02:11:33.958Z,7.20
2022-08-26T02:14:14.677Z,6.80
2022-08-26T02:16:42.496Z,7.30
2022-08-26T02:19:17.326Z,6.80
2022-08-26T02:21:45.932Z,6.90
2022-08-26T02:24:20.846Z,7.10
2022-08-26T02:26:47.788Z,6.80
2022-08-26T02:29:25.745Z,7.70
2022-08-26T02:31:52.604Z,7.30
2022-08-26T02:34:21.557Z,7.10
2022-08-26T02:36:49.394Z,6.80
2022-08-26T02:39:22.273Z,7.40
2022-08-26T02:41:49.322Z,6.50
2022-08-26T02:44:16.112Z,7.30
2022-08-26T02:46:46.890Z,7.30
2022-08-26T02:49:15.232Z,6.70
2022-08-26T02:51:43.861Z,6.90
2022-08-26T02:54:10.669Z,6.80
2022-08-26T02:56:37.471Z,7.30
2022-08-26T02:59:04.261Z,6.40
2022-08-26T03:01:33.507Z,7.20
2022-08-26T03:04:00.579Z,8.00
2022-08-26T03:06:27.372Z,7.00
2022-08-26T03:08:54.384Z,6.60
2022-08-26T03:11:21.316Z,6.90
2022-08-26T03:13:48.630Z,7.40
2022-08-26T03:16:15.621Z,7.40
2022-08-26T03:18:42.559Z,6.70
2022-08-26T03:21:11.164Z,7.10
2022-08-26T03:23:38.499Z,7.20
2022-08-26T03:26:06.202Z,7.20
2022-08-26T03:28:33.507Z,7.10
2022-08-26T03:31:02.299Z,8.20
2022-08-26T03:33:29.139Z,7.60
2022-08-26T03:35:56.050Z,7.10
2022-08-26T03:38:25.139Z,7.20
2022-08-26T03:40:52.593Z,7.40
2022-08-26T03:43:19.745Z,8.40
2022-08-26T03:45:46.727Z,6.80
2022-08-26T03:48:13.648Z,7.90
2022-08-26T03:50:40.458Z,7.00
2022-08-26T03:53:07.480Z,7.60
2022-08-26T03:55:39.767Z,7.10
2022-08-26T03:58:06.498Z,7.30
2022-08-26T04:00:34.447Z,7.40
2022-08-26T04:03:01.321Z,6.90
2022-08-26T04:05:28.402Z,6.80
2022-08-26T04:07:55.208Z,6.50
2022-08-26T04:10:28.611Z,7.40
2022-08-26T04:12:59.019Z,6.60
2022-08-26T04:15:26.885Z,6.20
2022-08-26T04:17:53.754Z,6.40
2022-08-26T04:20:22.646Z,6.80
2022-08-26T04:22:49.383Z,7.00
2022-08-26T04:25:16.755Z,7.30
2022-08-26T04:27:43.491Z,7.70
2022-08-26T04:30:11.257Z,6.80
2022-08-26T04:32:38.672Z,6.80
2022-08-26T04:35:07.285Z,6.60
2022-08-26T04:37:36.032Z,6.60
2022-08-26T04:40:03.348Z,6.20
2022-08-26T04:42:33.311Z,7.10
2022-08-26T04:45:01.175Z,6.70
2022-08-26T04:47:32.134Z,6.20
2022-08-26T04:50:00.027Z,6.60
2022-08-26T04:52:26.761Z,6.10
2022-08-26T04:54:54.960Z,6.50
2022-08-26T04:57:23.277Z,6.10
2022-08-26T04:59:49.996Z,7.00
2022-08-26T05:02:16.717Z,6.90
2022-08-26T05:04:43.693Z,7.20
2022-08-26T05:07:10.756Z,6.50
2022-08-26T05:09:39.491Z,6.40
2022-08-26T05:12:07.516Z,6.70
2022-08-26T05:14:35.948Z,6.10
2022-08-26T05:17:03.231Z,6.00
2022-08-26T05:19:31.603Z,6.80
2022-08-26T05:21:59.605Z,6.70
2022-08-26T05:24:26.324Z,6.20
2022-08-26T05:26:54.117Z,7.20
2022-08-26T05:29:23.237Z,6.60
2022-08-26T05:31:53.383Z,6.20
2022-08-26T05:34:23.139Z,6.10
2022-08-26T05:36:52.829Z,6.90
2022-08-26T05:39:19.637Z,6.30
2022-08-26T05:41:46.431Z,6.60
2022-08-26T05:44:14.613Z,6.00
2022-08-26T05:46:41.591Z,6.00
2022-08-26T05:49:12.628Z,5.90
2022-08-26T05:51:41.013Z,6.10
2022-08-26T05:54:07.814Z,8.20
2022-08-26T05:56:37.825Z,6.50
2022-08-26T05:59:05.175Z,6.70
2022-08-26T06:01:35.827Z,6.30
2022-08-26T06:04:03.010Z,6.20
2022-08-26T06:06:31.775Z,6.00
2022-08-26T06:08:59.457Z,6.10
2022-08-26T06:11:27.483Z,6.20
2022-08-26T06:13:55.809Z,5.80
2022-08-26T06:16:25.125Z,6.50
2022-08-26T06:18:52.335Z,6.60
2022-08-26T06:21:25.161Z,6.70
2022-08-26T06:24:12.194Z,5.90
2022-08-26T06:26:39.110Z,5.80
2022-08-26T06:29:09.654Z,6.00
2022-08-26T06:31:36.452Z,5.70
2022-08-26T06:34:09.882Z,6.20
2022-08-26T06:36:39.360Z,6.50
2022-08-26T06:39:07.548Z,6.50
2022-08-26T06:41:34.499Z,6.10
2022-08-26T06:44:02.211Z,5.60
2022-08-26T06:46:29.672Z,6.80
2022-08-26T06:48:58.304Z,6.20
2022-08-26T06:51:30.083Z,6.00
2022-08-26T06:53:59.253Z,5.90
2022-08-26T06:56:47.905Z,6.10
2022-08-26T06:59:16.130Z,6.20
2022-08-26T07:01:46.155Z,6.00
2022-08-26T07:04:15.652Z,6.20
2022-08-26T07:06:48.908Z,7.00
2022-08-26T07:09:15.994Z,5.70
2022-08-26T07:11:42.827Z,6.00
2022-08-26T07:14:09.657Z,6.20
2022-08-26T07:16:36.646Z,5.20
2022-08-26T07:19:11.230Z,6.00
2022-08-26T07:21:40.388Z,6.40
2022-08-26T07:24:08.146Z,5.40
2022-08-26T07:26:34.893Z,6.60
2022-08-26T07:29:02.151Z,6.30
2022-08-26T07:31:36.002Z,5.90
2022-08-26T07:34:07.662Z,5.90
2022-08-26T07:36:34.920Z,5.10
2022-08-26T07:39:01.665Z,6.50
2022-08-26T07:43:56.939Z,5.90
2022-08-26T07:46:29.937Z,6.50
2022-08-26T07:48:57.320Z,6.00
2022-08-26T07:51:24.995Z,5.60
2022-08-26T07:53:52.485Z,5.90
2022-08-26T07:56:20.611Z,6.00
2022-08-26T07:58:51.504Z,6.30
2022-08-26T08:01:23.877Z,5.20
2022-08-26T08:03:51.637Z,5.20
2022-08-26T08:06:22.607Z,7.00
2022-08-26T08:08:54.562Z,5.70
2022-08-26T08:11:21.637Z,6.00
2022-08-26T08:13:49.168Z,5.60
2022-08-26T08:16:15.950Z,7.40
2022-08-26T08:18:42.724Z,5.90
2022-08-26T08:21:23.603Z,5.50
2022-08-26T08:23:52.040Z,5.40
2022-08-26T08:26:18.872Z,5.00
2022-08-26T08:28:46.299Z,5.30
2022-08-26T08:31:44.999Z,4.50
2022-08-26T08:34:08.653Z,5.10
2022-08-26T08:36:35.814Z,5.30
2022-08-26T08:39:03.495Z,5.40
2022-08-26T08:41:36.626Z,6.60
2022-08-26T08:44:03.530Z,4.10
2022-08-26T08:46:30.400Z,6.30
2022-08-26T08:48:59.798Z,4.10
2022-08-26T08:51:59.231Z,4.90
2022-08-26T08:54:30.069Z,5.70
2022-08-26T08:56:57.758Z,4.50
2022-08-26T08:59:29.332Z,3.80
2022-08-26T09:02:18.383Z,5.50
2022-08-26T09:05:03.074Z,4.90
2022-08-26T09:07:36.559Z,4.30
2022-08-26T09:10:23.132Z,3.90
2022-08-26T09:12:50.067Z,4.30
2022-08-26T09:15:19.426Z,4.90
2022-08-26T09:17:59.946Z,4.30
2022-08-26T09:20:41.919Z,4.40
2022-08-26T09:23:12.380Z,5.00
2022-08-26T09:25:48.048Z,4.00
2022-08-26T09:28:20.136Z,3.40
2022-08-26T09:31:01.484Z,3.40
2022-08-26T09:33:30.372Z,3.60
2022-08-26T09:36:24.678Z,3.90
2022-08-26T09:38:52.745Z,3.40
2022-08-26T09:41:24.669Z,3.70
2022-08-26T09:44:14.541Z,3.80
2022-08-26T09:47:02.824Z,3.00
2022-08-26T09:49:35.723Z,3.70
2022-08-26T09:52:20.232Z,3.80
2022-08-26T09:57:16.233Z,3.00
2022-08-26T09:59:43.227Z,3.60
2022-08-26T10:02:32.215Z,3.80
2022-08-26T10:05:09.023Z,4.00
2022-08-26T10:07:50.480Z,3.00
2022-08-26T10:10:18.866Z,2.90
2022-08-26T10:12:49.655Z,3.50
2022-08-26T10:15:16.654Z,2.80
2022-08-26T10:17:50.062Z,2.80
2022-08-26T10:20:24.045Z,2.20
2022-08-26T10:23:03.259Z,2.30
2022-08-26T10:25:35.006Z,3.20
2022-08-26T10:28:08.043Z,3.10
2022-08-26T10:30:40.154Z,3.10
2022-08-26T10:33:11.568Z,23.10
2022-08-26T10:35:48.596Z,2.80
2022-08-26T10:38:18.363Z,2.30
2022-08-26T10:41:10.471Z,2.40
2022-08-26T10:43:41.676Z,2.90
2022-08-26T10:46:10.645Z,2.50
2022-08-26T10:48:53.901Z,2.20
2022-08-26T10:51:25.036Z,2.40
2022-08-26T10:54:13.242Z,13.40
2022-08-26T10:56:58.328Z,2.80
2022-08-26T10:59:44.239Z,3.10
2022-08-26T11:02:25.151Z,2.30
2022-08-26T11:04:56.148Z,2.70
2022-08-26T11:07:42.658Z,2.60
2022-08-26T11:10:18.512Z,2.70
2022-08-26T11:12:49.044Z,42.30
2022-08-26T11:15:24.390Z,3.50
2022-08-26T11:17:51.693Z,2.80
2022-08-26T11:20:27.905Z,3.30
2022-08-26T11:25:29.896Z,11.10
2022-08-26T11:27:59.548Z,4.20
2022-08-26T11:30:40.325Z,3.10
2022-08-26T11:33:08.177Z,4.30
2022-08-26T11:35:35.017Z,5.20
2022-08-26T11:38:20.662Z,4.70
2022-08-26T11:41:06.126Z,24.30
2022-08-26T11:43:33.699Z,4.00
2022-08-26T11:46:06.023Z,3.50
2022-08-26T11:48:38.978Z,2.80
2022-08-26T11:51:21.823Z,2.90
2022-08-26T11:53:48.676Z,3.40
2022-08-26T11:56:28.881Z,2.70
2022-08-26T11:59:00.114Z,3.40
2022-08-26T12:01:37.992Z,2.70
2022-08-26T12:04:07.480Z,2.60
2022-08-26T12:06:44.958Z,8.00
2022-08-26T12:15:23.004Z,4.40
2022-08-26T12:17:54.350Z,3.70
2022-08-26T12:20:48.575Z,27.20
2022-08-26T12:23:28.201Z,3.40
2022-08-26T12:26:10.408Z,3.20
2022-08-26T12:29:26.942Z,3.40
2022-08-26T12:32:13.310Z,3.40
2022-08-26T12:34:41.743Z,3.10
2022-08-26T12:37:10.267Z,2.60
2022-08-26T12:39:38.467Z,57.40
2022-08-26T12:42:17.486Z,4.70
2022-08-26T12:45:01.303Z,2.90
2022-08-26T12:47:42.291Z,4.20
2022-08-26T12:50:20.151Z,3.00
2022-08-26T12:53:00.944Z,3.10
2022-08-26T12:55:45.338Z,2.70
2022-08-26T12:58:15.167Z,2.80
2022-08-26T13:00:49.482Z,2.70
2022-08-26T13:03:34.813Z,2.90
2022-08-26T13:06:23.550Z,3.30
2022-08-26T13:08:55.718Z,27.20
2022-08-26T13:11:31.887Z,3.40
2022-08-26T13:14:07.013Z,2.90
2022-08-26T13:16:34.915Z,3.60
2022-08-26T13:19:04.401Z,3.10
2022-08-26T13:21:37.507Z,3.60
2022-08-26T13:24:09.296Z,2.70
2022-08-26T13:26:36.078Z,3.70
2022-08-26T13:29:05.285Z,3.30
2022-08-26T13:31:35.592Z,3.30
2022-08-26T13:34:02.973Z,3.20
2022-08-26T13:36:29.891Z,2.70
2022-08-26T13:38:56.696Z,3.00
2022-08-26T13:41:23.621Z,2.50
2022-08-26T13:43:56.842Z,2.90
2022-08-26T13:46:27.040Z,3.40
2022-08-26T13:48:54.610Z,19.10
2022-08-26T13:51:22.901Z,3.20
2022-08-26T13:53:50.342Z,4.20
2022-08-26T13:56:17.172Z,2.60
2022-08-26T13:58:44.378Z,2.80
2022-08-26T14:01:13.035Z,6.00
2022-08-26T14:03:39.896Z,4.80
2022-08-26T14:06:06.696Z,5.20
2022-08-26T14:08:33.443Z,4.90
2022-08-26T14:11:00.265Z,4.20
2022-08-26T14:13:27.170Z,3.00
2022-08-26T14:15:54.167Z,5.50
2022-08-26T14:18:23.904Z,3.50
2022-08-26T14:20:53.181Z,2.80
2022-08-26T14:23:19.973Z,3.20
2022-08-26T14:25:46.764Z,55.90
2022-08-26T14:28:13.760Z,3.20
2022-08-26T14:30:41.414Z,2.60
2022-08-26T14:33:10.750Z,2.10
2022-08-26T14:35:37.730Z,3.40
2022-08-26T14:38:04.520Z,3.00
2022-08-26T14:40:31.650Z,3.00
2022-08-26T14:43:00.708Z,3.10
2022-08-26T14:45:27.657Z,3.30
2022-08-26T14:47:56.580Z,3.10
2022-08-26T14:50:24.864Z,3.40
2022-08-26T14:53:27.017Z,3.60
2022-08-26T14:55:53.815Z,3.10
2022-08-26T14:58:20.655Z,4.10
2022-08-26T15:00:47.422Z,2.90
2022-08-26T15:05:48.026Z,4.60
2022-08-26T15:08:15.975Z,2.80
2022-08-26T15:10:42.737Z,3.10
2022-08-26T15:13:09.514Z,4.10
2022-08-26T15:15:37.427Z,10.30
2022-08-26T15:18:04.297Z,3.20
2022-08-26T15:23:06.069Z,3.00
2022-08-26T15:25:33.227Z,3.60
2022-08-26T15:28:00.116Z,2.70
2022-08-26T15:30:27.355Z,3.00
2022-08-26T15:32:54.154Z,2.40
2022-08-26T15:35:21.260Z,3.10
2022-08-26T15:37:48.087Z,2.60
2022-08-26T15:40:14.961Z,4.00
2022-08-26T15:42:41.823Z,3.10
2022-08-26T15:45:08.923Z,3.10
2022-08-26T15:47:58.111Z,5.40
2022-08-26T15:50:22.560Z,3.60
2022-08-26T15:52:49.335Z,3.60
2022-08-26T15:55:16.123Z,13.20
2022-08-26T15:57:42.970Z,3.90
2022-08-26T16:00:12.396Z,3.00
2022-08-26T16:02:39.320Z,3.20
2022-08-26T16:05:06.504Z,3.50
2022-08-26T16:07:33.473Z,2.80
2022-08-26T16:10:00.316Z,3.50
2022-08-26T16:12:27.517Z,3.60
2022-08-26T16:14:54.349Z,2.70
2022-08-26T16:17:21.105Z,3.00
2022-08-26T16:19:47.927Z,3.00
2022-08-26T16:22:14.716Z,3.10
2022-08-26T16:24:41.511Z,2.80
2022-08-26T16:27:08.458Z,2.60
2022-08-26T16:29:35.260Z,3.00
2022-08-26T16:32:08.613Z,2.90
2022-08-26T16:34:36.179Z,3.00
2022-08-26T16:37:03.066Z,3.10
2022-08-26T16:39:29.898Z,3.20
2022-08-26T16:41:56.664Z,3.60
2022-08-26T16:44:23.473Z,3.10
2022-08-26T16:46:58.567Z,3.20
2022-08-26T16:49:25.659Z,3.10
2022-08-26T16:51:52.422Z,3.10
2022-08-26T16:54:19.201Z,3.10
2022-08-26T16:56:45.990Z,4.00
2022-08-26T16:59:12.834Z,3.10
2022-08-26T17:01:39.701Z,2.60
2022-08-26T17:04:06.759Z,3.40
2022-08-26T17:06:34.280Z,2.70
2022-08-26T17:09:01.069Z,3.10
2022-08-26T17:11:28.076Z,3.50
2022-08-26T17:13:55.014Z,3.30
2022-08-26T17:16:26.463Z,3.90
2022-08-26T17:18:55.516Z,4.20
2022-08-26T17:21:22.296Z,5.30
2022-08-26T17:23:49.066Z,4.50
2022-08-26T17:26:15.768Z,4.20
2022-08-26T17:28:42.560Z,4.10
2022-08-26T17:31:10.772Z,28.40
2022-08-26T17:33:38.161Z,40.30
2022-08-26T17:36:05.943Z,23.00
2022-08-26T17:38:32.694Z,13.70
2022-08-26T17:40:59.490Z,28.10
2022-08-26T17:43:29.429Z,49.50
2022-08-26T17:46:04.675Z,81.50
2022-08-26T17:48:35.279Z,79.40
2022-08-26T17:51:09.778Z,56.40
2022-08-26T17:53:37.200Z,128.90
2022-08-26T17:56:08.213Z,174.10
2022-08-26T17:58:35.136Z,138.40
2022-08-26T18:01:02.023Z,87.30
2022-08-26T18:03:28.902Z,60.90
2022-08-26T18:05:55.675Z,47.00
2022-08-26T18:08:22.490Z,37.90
2022-08-26T18:10:49.436Z,64.20
2022-08-26T18:13:16.363Z,102.60
2022-08-26T18:15:43.941Z,56.60
2022-08-26T18:18:11.942Z,39.00
2022-08-26T18:20:39.160Z,53.60
2022-08-26T18:23:05.960Z,42.80
2022-08-26T18:25:33.310Z,32.30
2022-08-26T18:28:00.208Z,19.70
2022-08-26T18:30:26.972Z,15.40
2022-08-26T18:32:53.753Z,14.40
2022-08-26T18:35:28.912Z,28.20
2022-08-26T18:37:56.862Z,43.50
2022-08-26T18:40:24.585Z,40.10
2022-08-26T18:42:54.176Z,56.50
2022-08-26T18:45:21.435Z,72.40
2022-08-26T18:47:48.179Z,69.10
2022-08-26T18:50:15.763Z,34.90
2022-08-26T18:52:43.389Z,18.60
2022-08-26T18:55:10.420Z,14.40
2022-08-26T18:57:37.174Z,9.10
2022-08-26T19:00:05.485Z,9.50
2022-08-26T19:02:32.925Z,17.00
2022-08-26T19:05:01.156Z,9.80
2022-08-26T19:07:28.026Z,15.20
2022-08-26T19:09:55.244Z,12.20
2022-08-26T19:12:22.346Z,11.00
2022-08-26T19:14:53.696Z,9.20
2022-08-26T19:17:20.679Z,9.20
2022-08-26T19:19:49.828Z,8.90
2022-08-26T19:22:16.663Z,9.50
2022-08-26T19:24:43.373Z,9.70
2022-08-26T19:27:14.585Z,8.90
2022-08-26T19:29:42.178Z,9.00
2022-08-26T19:32:09.011Z,8.50
2022-08-26T19:34:36.364Z,9.60
2022-08-26T19:37:03.102Z,9.90
2022-08-26T19:39:29.911Z,8.50
2022-08-26T19:41:56.747Z,8.20
2022-08-26T19:44:42.126Z,7.70
2022-08-26T19:47:09.759Z,8.10
2022-08-26T19:49:36.652Z,7.70
2022-08-26T19:52:03.805Z,7.20
2022-08-26T19:54:30.686Z,7.20
2022-08-26T19:56:57.459Z,7.00
2022-08-26T19:59:24.335Z,7.30
2022-08-26T20:02:00.992Z,7.40
2022-08-26T20:04:29.651Z,7.90
2022-08-26T20:06:57.786Z,7.10
2022-08-26T20:09:28.497Z,7.00
2022-08-26T20:11:56.754Z,7.00
2022-08-26T20:14:24.686Z,6.40
2022-08-26T20:16:51.455Z,6.40
2022-08-26T20:19:37.646Z,8.30
2022-08-26T20:22:05.092Z,6.60
2022-08-26T20:24:32.695Z,6.60
2022-08-26T20:27:00.836Z,7.10
2022-08-26T20:29:30.293Z,6.70
2022-08-26T20:31:57.114Z,6.80
2022-08-26T20:34:23.889Z,6.80
2022-08-26T20:36:51.099Z,6.70
2022-08-26T20:39:18.886Z,6.60
2022-08-26T20:41:45.803Z,7.50
2022-08-26T20:44:13.881Z,7.20
2022-08-26T20:46:40.821Z,6.90
2022-08-26T20:49:07.648Z,7.00
2022-08-26T20:51:34.823Z,7.40
2022-08-26T20:54:01.802Z,6.30
2022-08-26T20:56:28.626Z,8.00
2022-08-26T20:58:55.923Z,6.40
2022-08-26T21:01:28.206Z,7.20
2022-08-26T21:03:55.552Z,6.40
2022-08-26T21:06:22.584Z,7.00
2022-08-26T21:08:50.053Z,7.30
2022-08-26T21:11:18.292Z,7.40
2022-08-26T21:14:03.951Z,7.10
2022-08-26T21:16:31.614Z,7.90
2022-08-26T21:19:00.308Z,7.00
2022-08-26T21:21:27.649Z,7.50
2022-08-26T21:23:54.875Z,6.80
2022-08-26T21:26:22.350Z,7.90
2022-08-26T21:28:49.154Z,6.90
2022-08-26T21:31:17.942Z,7.60
2022-08-26T21:33:44.781Z,7.10
2022-08-26T21:36:12.365Z,7.80
2022-08-26T21:38:39.359Z,7.00
2022-08-26T21:41:11.990Z,7.20
2022-08-26T21:43:39.516Z,8.00
2022-08-26T21:46:16.950Z,6.60
2022-08-26T21:48:50.564Z,6.80
2022-08-26T21:51:19.453Z,7.40
2022-08-26T21:53:46.254Z,7.60
2022-08-26T21:56:14.208Z,6.70
2022-08-26T21:58:41.158Z,7.00
2022-08-26T22:01:09.348Z,7.60
2022-08-26T22:03:40.704Z,7.20
2022-08-26T22:06:18.204Z,7.50
2022-08-26T22:08:45.009Z,6.80
2022-08-26T22:11:12.023Z,6.90
2022-08-26T22:14:30.780Z,7.10
2022-08-26T22:16:58.272Z,6.80
2022-08-26T22:19:25.172Z,6.90
2022-08-26T22:21:53.333Z,7.30
2022-08-26T22:24:21.314Z,6.40
2022-08-26T22:26:48.837Z,6.60
2022-08-26T22:29:15.799Z,6.70
2022-08-26T22:31:42.609Z,6.30
2022-08-26T22:34:11.441Z,6.40
2022-08-26T22:36:43.703Z,6.80
2022-08-26T22:39:15.672Z,6.40
2022-08-26T22:41:43.126Z,6.30
2022-08-26T22:44:12.046Z,5.80
2022-08-26T22:47:01.225Z,6.30
2022-08-26T22:49:28.809Z,6.70
2022-08-26T22:51:55.994Z,6.80
2022-08-26T22:54:22.900Z,6.70
2022-08-26T22:56:49.743Z,6.30
2022-08-26T22:59:16.893Z,5.80
2022-08-26T23:01:44.110Z,6.20
2022-08-26T23:04:11.149Z,6.00
2022-08-26T23:06:39.568Z,5.80
2022-08-26T23:09:06.852Z,7.10
2022-08-26T23:11:33.688Z,6.00
2022-08-26T23:14:02.295Z,5.90
2022-08-26T23:16:39.493Z,6.00
2022-08-26T23:19:06.752Z,6.50
2022-08-26T23:21:33.565Z,7.10
2022-08-26T23:24:01.030Z,6.80
2022-08-26T23:26:28.097Z,6.60
2022-08-26T23:28:55.115Z,6.40
2022-08-26T23:31:22.115Z,6.40
2022-08-26T23:34:07.445Z,7.20
2022-08-26T23:36:35.039Z,6.80
2022-08-26T23:39:03.921Z,7.30
2022-08-26T23:41:30.827Z,7.20
2022-08-26T23:44:02.845Z,6.90
2022-08-26T23:46:30.815Z,6.90
2022-08-26T23:48:57.587Z,7.30
2022-08-26T23:51:42.988Z,6.90
2022-08-26T23:54:13.002Z,7.70
2022-08-26T23:56:40.066Z,8.10
2022-08-26T23:59:07.182Z,6.30
